createdAt,value
2018-12-25T00:00:02.761Z,84.69
2018-12-25T00:01:02.789Z,84.90
2018-12-25T00:02:02.732Z,84.90
2018-12-25T00:03:02.729Z,84.48
2018-12-25T00:04:02.696Z,84.63
2018-12-25T00:05:02.726Z,84.31
2018-12-25T00:06:02.676Z,84.17
2018-12-25T00:07:02.695Z,84.90
2018-12-25T00:08:02.688Z,84.90
2018-12-25T00:09:02.654Z,84.69
2018-12-25T00:10:02.631Z,84.80
2018-12-25T00:11:02.638Z,84.90
2018-12-25T00:12:02.649Z,84.65
2018-12-25T00:13:02.625Z,84.69
2018-12-25T00:14:02.599Z,84.48
2018-12-25T00:15:02.580Z,84.44
2018-12-25T00:16:02.580Z,84.34
2018-12-25T00:17:02.558Z,84.55
2018-12-25T00:18:02.616Z,84.13
2018-12-25T00:19:06.172Z,83.75
2018-12-25T00:20:02.584Z,84.27
2018-12-25T00:21:02.522Z,84.21
2018-12-25T00:22:02.505Z,84.48
2018-12-25T00:23:02.494Z,84.48
2018-12-25T00:24:02.516Z,85.04
2018-12-25T00:25:02.524Z,84.94
2018-12-25T00:26:02.463Z,85.31
2018-12-25T00:27:02.469Z,85.42
2018-12-25T00:28:02.445Z,85.63
2018-12-25T00:29:02.450Z,85.00
2018-12-25T00:30:02.438Z,84.90
2018-12-25T00:31:02.436Z,84.80
2018-12-25T00:32:02.424Z,85.00
2018-12-25T00:33:02.410Z,84.38
2018-12-25T00:34:02.408Z,84.23
2018-12-25T00:35:02.368Z,84.44
2018-12-25T00:36:02.376Z,84.65
2018-12-25T00:37:02.354Z,84.65
2018-12-25T00:38:02.346Z,84.65
2018-12-25T00:39:02.349Z,84.65
2018-12-25T00:40:02.318Z,84.44
2018-12-25T00:41:02.304Z,84.55
2018-12-25T00:42:02.296Z,84.44
2018-12-25T00:43:02.286Z,83.72
2018-12-25T00:44:02.305Z,83.92
2018-12-25T00:45:02.354Z,84.17
2018-12-25T00:46:02.262Z,84.80
2018-12-25T00:47:02.241Z,84.48
2018-12-25T00:48:02.238Z,84.59
2018-12-25T00:49:02.250Z,84.48
2018-12-25T00:50:02.210Z,84.59
2018-12-25T00:51:02.239Z,84.48
2018-12-25T00:52:02.226Z,84.06
2018-12-25T00:53:02.186Z,84.69
2018-12-25T00:54:02.177Z,84.06
2018-12-25T00:55:02.177Z,85.00
2018-12-25T00:56:02.146Z,84.38
2018-12-25T00:57:02.141Z,84.38
2018-12-25T00:58:02.121Z,84.69
2018-12-25T00:59:02.142Z,84.52
2018-12-25T01:00:02.126Z,84.52
2018-12-25T01:01:02.170Z,84.59
2018-12-25T01:02:02.265Z,84.48
2018-12-25T01:03:02.081Z,84.73
2018-12-25T01:04:02.059Z,84.73
2018-12-25T01:05:02.084Z,84.73
2018-12-25T01:06:02.049Z,84.80
2018-12-25T01:07:02.049Z,84.21
2018-12-25T01:08:02.033Z,83.86
2018-12-25T01:09:02.022Z,84.11
2018-12-25T01:10:02.049Z,84.17
2018-12-25T01:11:01.991Z,84.83
2018-12-25T01:12:01.985Z,84.80
2018-12-25T01:13:01.971Z,84.06
2018-12-25T01:14:01.959Z,84.06
2018-12-25T01:15:01.987Z,84.21
2018-12-25T01:16:01.951Z,84.42
2018-12-25T01:17:01.933Z,84.59
2018-12-25T01:18:01.948Z,84.17
2018-12-25T01:19:01.917Z,84.00
2018-12-25T01:20:01.935Z,84.17
2018-12-25T01:21:01.893Z,84.21
2018-12-25T01:22:01.868Z,84.00
2018-12-25T01:23:01.875Z,84.00
2018-12-25T01:24:01.854Z,84.38
2018-12-25T01:25:01.879Z,84.80
2018-12-25T01:26:01.842Z,84.80
2018-12-25T01:27:01.877Z,84.80
2018-12-25T01:28:01.828Z,84.17
2018-12-25T01:29:01.820Z,84.59
2018-12-25T01:30:01.839Z,84.06
2018-12-25T01:31:01.774Z,84.17
2018-12-25T01:32:01.932Z,83.75
2018-12-25T01:33:01.771Z,84.27
2018-12-25T01:34:01.761Z,84.69
2018-12-25T01:35:01.770Z,83.75
2018-12-25T01:36:01.755Z,83.92
2018-12-25T01:37:01.716Z,83.96
2018-12-25T01:38:01.745Z,83.75
2018-12-25T01:39:01.707Z,83.72
2018-12-25T01:40:01.693Z,83.61
2018-12-25T01:41:01.719Z,83.61
2018-12-25T01:42:01.664Z,83.72
2018-12-25T01:43:01.651Z,83.51
2018-12-25T01:44:01.659Z,83.30
2018-12-25T01:45:01.631Z,83.20
2018-12-25T01:46:01.640Z,83.61
2018-12-25T01:47:01.614Z,83.30
2018-12-25T01:48:01.609Z,83.20
2018-12-25T01:49:01.586Z,83.51
2018-12-25T01:50:01.581Z,83.30
2018-12-25T01:51:01.608Z,83.40
2018-12-25T01:52:01.591Z,83.09
2018-12-25T01:53:01.544Z,82.99
2018-12-25T01:54:01.531Z,83.05
2018-12-25T01:55:01.551Z,83.47
2018-12-25T01:56:01.547Z,83.47
2018-12-25T01:57:01.504Z,83.26
2018-12-25T01:58:01.496Z,82.84
2018-12-25T01:59:01.478Z,83.47
2018-12-25T02:00:01.468Z,83.16
2018-12-25T02:01:01.478Z,83.05
2018-12-25T02:02:01.449Z,83.68
2018-12-25T02:03:01.435Z,84.23
2018-12-25T02:04:01.436Z,84.75
2018-12-25T02:05:01.416Z,84.03
2018-12-25T02:06:01.423Z,84.75
2018-12-25T02:07:01.393Z,84.44
2018-12-25T02:08:01.426Z,84.44
2018-12-25T02:09:01.373Z,84.75
2018-12-25T02:10:01.374Z,84.23
2018-12-25T02:11:02.119Z,84.09
2018-12-25T02:12:01.342Z,84.41
2018-12-25T02:13:01.331Z,83.47
2018-12-25T02:14:01.335Z,83.16
2018-12-25T02:15:01.308Z,82.95
2018-12-25T02:16:01.358Z,83.37
2018-12-25T02:17:01.288Z,83.05
2018-12-25T02:18:01.277Z,82.95
2018-12-25T02:19:01.279Z,83.05
2018-12-25T02:20:01.257Z,83.37
2018-12-25T02:21:01.247Z,83.47
2018-12-25T02:22:01.274Z,83.58
2018-12-25T02:23:01.225Z,83.40
2018-12-25T02:24:01.213Z,83.40
2018-12-25T02:25:01.204Z,83.51
2018-12-25T02:26:01.195Z,83.40
2018-12-25T02:27:01.201Z,83.61
2018-12-25T02:28:01.173Z,83.40
2018-12-25T02:29:01.161Z,83.40
2018-12-25T02:30:01.151Z,82.99
2018-12-25T02:31:01.147Z,83.05
2018-12-25T02:32:01.153Z,83.20
2018-12-25T02:33:01.122Z,83.37
2018-12-25T02:34:01.117Z,83.16
2018-12-25T02:35:01.100Z,82.74
2018-12-25T02:36:01.092Z,83.58
2018-12-25T02:37:01.096Z,84.09
2018-12-25T02:38:01.070Z,83.99
2018-12-25T02:39:01.056Z,84.82
2018-12-25T02:40:01.056Z,84.20
2018-12-25T02:41:01.033Z,83.72
2018-12-25T02:42:01.059Z,84.03
2018-12-25T02:43:01.020Z,83.92
2018-12-25T02:44:01.004Z,83.72
2018-12-25T02:45:00.994Z,84.75
2018-12-25T02:46:01.030Z,84.23
2018-12-25T02:47:00.973Z,84.44
2018-12-25T02:48:00.980Z,84.44
2018-12-25T02:49:00.957Z,83.92
2018-12-25T02:50:00.940Z,84.44
2018-12-25T02:51:00.931Z,84.44
2018-12-25T02:52:00.927Z,84.72
2018-12-25T02:53:01.068Z,83.68
2018-12-25T02:54:00.898Z,83.99
2018-12-25T02:55:00.896Z,83.89
2018-12-25T02:56:00.878Z,84.09
2018-12-25T02:57:00.867Z,83.99
2018-12-25T02:58:00.896Z,84.16
2018-12-25T02:59:00.845Z,83.84
2018-12-25T03:00:00.841Z,83.43
2018-12-25T03:01:00.824Z,83.05
2018-12-25T03:02:00.825Z,82.95
2018-12-25T03:03:00.849Z,83.43
2018-12-25T03:04:00.799Z,83.53
2018-12-25T03:05:00.784Z,83.43
2018-12-25T03:06:00.772Z,83.53
2018-12-25T03:07:00.760Z,83.33
2018-12-25T03:08:00.769Z,82.81
2018-12-25T03:09:00.740Z,82.91
2018-12-25T03:10:00.740Z,82.81
2018-12-25T03:11:00.720Z,83.22
2018-12-25T03:12:00.710Z,83.01
2018-12-25T03:13:00.716Z,83.53
2018-12-25T03:14:00.689Z,82.81
2018-12-25T03:15:00.675Z,83.22
2018-12-25T03:16:00.681Z,83.33
2018-12-25T03:17:00.661Z,83.12
2018-12-25T03:18:00.665Z,83.33
2018-12-25T03:19:00.634Z,82.91
2018-12-25T03:20:00.636Z,83.22
2018-12-25T03:21:00.619Z,82.87
2018-12-25T03:22:00.615Z,83.08
2018-12-25T03:23:00.610Z,83.53
2018-12-25T03:24:00.588Z,82.67
2018-12-25T03:25:00.575Z,82.56
2018-12-25T03:26:00.562Z,82.87
2018-12-25T03:27:00.556Z,83.43
2018-12-25T03:28:00.585Z,83.43
2018-12-25T03:29:00.527Z,83.64
2018-12-25T03:30:00.604Z,83.33
2018-12-25T03:31:00.509Z,83.18
2018-12-25T03:32:00.500Z,83.08
2018-12-25T03:33:00.490Z,82.70
2018-12-25T03:34:00.507Z,82.67
2018-12-25T03:35:00.466Z,82.77
2018-12-25T03:36:00.458Z,82.77
2018-12-25T03:37:00.447Z,82.77
2018-12-25T03:38:00.434Z,83.08
2018-12-25T03:39:00.441Z,82.98
2018-12-25T03:40:00.419Z,82.15
2018-12-25T03:41:00.402Z,82.56
2018-12-25T03:42:00.392Z,82.56
2018-12-25T03:43:00.381Z,82.56
2018-12-25T03:44:00.389Z,82.77
2018-12-25T03:45:00.506Z,83.29
2018-12-25T03:46:00.358Z,83.22
2018-12-25T03:47:00.463Z,82.87
2018-12-25T03:48:00.329Z,83.08
2018-12-25T03:49:00.334Z,82.91
2018-12-25T03:50:10.023Z,82.70
2018-12-25T03:51:01.295Z,82.04
2018-12-25T03:52:00.295Z,82.35
2018-12-25T03:53:00.274Z,82.46
2018-12-25T03:54:00.299Z,82.46
2018-12-25T03:55:00.306Z,82.87
2018-12-25T03:56:00.252Z,82.77
2018-12-25T03:57:00.236Z,82.67
2018-12-25T03:58:00.231Z,83.33
2018-12-25T03:59:00.230Z,83.18
2018-12-25T04:00:00.398Z,82.77
2018-12-25T04:01:00.197Z,82.04
2018-12-25T04:02:00.187Z,82.67
2018-12-25T04:03:00.174Z,82.35
2018-12-25T04:04:00.188Z,82.67
2018-12-25T04:05:00.292Z,82.46
2018-12-25T04:06:00.140Z,82.25
2018-12-25T04:07:00.129Z,82.15
2018-12-25T04:08:00.125Z,82.46
2018-12-25T04:09:00.124Z,82.46
2018-12-25T04:10:00.337Z,82.46
2018-12-25T04:11:00.085Z,82.42
2018-12-25T04:12:00.075Z,82.42
2018-12-25T04:13:00.065Z,82.15
2018-12-25T04:14:00.079Z,82.15
2018-12-25T04:15:00.045Z,82.35
2018-12-25T04:16:00.051Z,82.35
2018-12-25T04:17:00.024Z,82.15
2018-12-25T04:18:00.013Z,82.35
2018-12-25T04:19:00.025Z,82.67
2018-12-25T04:19:59.990Z,83.29
2018-12-25T04:20:59.980Z,82.98
2018-12-25T04:21:59.987Z,82.87
2018-12-25T04:22:59.967Z,83.18
2018-12-25T04:23:59.949Z,83.29
2018-12-25T04:24:59.955Z,82.98
2018-12-25T04:25:59.936Z,82.67
2018-12-25T04:26:59.922Z,82.98
2018-12-25T04:27:59.923Z,82.77
2018-12-25T04:28:59.896Z,82.98
2018-12-25T04:29:59.908Z,83.50
2018-12-25T04:30:59.875Z,83.64
2018-12-25T04:31:59.863Z,82.98
2018-12-25T04:32:59.852Z,82.87
2018-12-25T04:33:59.851Z,82.87
2018-12-25T04:34:59.850Z,83.08
2018-12-25T04:35:59.821Z,82.87
2018-12-25T04:36:59.810Z,82.77
2018-12-25T04:37:59.801Z,82.77
2018-12-25T04:38:59.792Z,82.87
2018-12-25T04:39:59.802Z,83.29
2018-12-25T04:40:59.770Z,83.18
2018-12-25T04:41:59.760Z,83.18
2018-12-25T04:42:59.747Z,82.77
2018-12-25T04:43:59.736Z,83.29
2018-12-25T04:44:59.758Z,83.70
2018-12-25T04:45:59.727Z,83.01
2018-12-25T04:46:59.705Z,83.43
2018-12-25T04:47:59.699Z,83.33
2018-12-25T04:48:59.683Z,83.33
2018-12-25T04:49:59.675Z,83.53
2018-12-25T04:50:59.685Z,83.29
2018-12-25T04:51:59.670Z,82.87
2018-12-25T04:52:59.669Z,82.87
2018-12-25T04:53:59.632Z,82.77
2018-12-25T04:54:59.621Z,82.98
2018-12-25T04:55:59.629Z,83.08
2018-12-25T04:56:59.598Z,83.08
2018-12-25T04:57:59.602Z,82.98
2018-12-25T04:58:59.579Z,82.87
2018-12-25T04:59:59.568Z,83.39
2018-12-25T05:00:59.582Z,83.08
2018-12-25T05:01:59.546Z,83.29
2018-12-25T05:02:59.535Z,82.77
2018-12-25T05:03:59.537Z,82.67
2018-12-25T05:04:59.515Z,83.29
2018-12-25T05:05:59.523Z,82.87
2018-12-25T05:06:59.495Z,82.87
2018-12-25T05:07:59.482Z,83.01
2018-12-25T05:08:59.473Z,82.98
2018-12-25T05:09:59.480Z,83.12
2018-12-25T05:10:59.470Z,83.50
2018-12-25T05:11:59.443Z,83.08
2018-12-25T05:12:59.447Z,83.29
2018-12-25T05:13:59.419Z,83.08
2018-12-25T05:14:59.409Z,83.29
2018-12-25T05:15:59.430Z,83.12
2018-12-25T05:16:59.387Z,83.33
2018-12-25T05:17:59.379Z,83.18
2018-12-25T05:18:59.367Z,83.18
2018-12-25T05:19:59.358Z,82.98
2018-12-25T05:20:59.372Z,83.29
2018-12-25T05:21:59.345Z,83.08
2018-12-25T05:22:59.325Z,83.29
2018-12-25T05:23:59.314Z,82.77
2018-12-25T05:24:59.305Z,82.42
2018-12-25T05:25:59.293Z,82.25
2018-12-25T05:26:59.299Z,83.08
2018-12-25T05:27:59.286Z,83.18
2018-12-25T05:28:59.265Z,82.77
2018-12-25T05:29:59.259Z,83.60
2018-12-25T05:30:59.239Z,83.22
2018-12-25T05:31:59.247Z,83.43
2018-12-25T05:32:59.223Z,83.64
2018-12-25T05:33:59.224Z,84.47
2018-12-25T05:34:59.203Z,84.16
2018-12-25T05:35:59.188Z,83.95
2018-12-25T05:36:59.196Z,83.95
2018-12-25T05:37:59.166Z,84.27
2018-12-25T05:38:59.156Z,84.27
2018-12-25T05:39:59.160Z,83.95
2018-12-25T05:40:59.134Z,84.68
2018-12-25T05:41:59.154Z,84.68
2018-12-25T05:42:59.113Z,83.64
2018-12-25T05:43:59.102Z,83.64
2018-12-25T05:44:59.096Z,83.84
2018-12-25T05:45:59.095Z,83.53
2018-12-25T05:46:59.072Z,83.64
2018-12-25T05:47:59.078Z,83.95
2018-12-25T05:48:59.053Z,84.47
2018-12-25T05:49:59.039Z,84.27
2018-12-25T05:50:59.032Z,84.16
2018-12-25T05:51:59.026Z,83.22
2018-12-25T05:52:59.026Z,83.43
2018-12-25T05:53:59.052Z,83.01
2018-12-25T05:54:58.988Z,82.70
2018-12-25T05:55:58.976Z,83.01
2018-12-25T05:56:58.966Z,83.50
2018-12-25T05:57:58.981Z,83.39
2018-12-25T05:58:58.944Z,83.29
2018-12-25T05:59:58.933Z,83.29
2018-12-25T06:00:58.929Z,83.50
2018-12-25T06:01:58.913Z,83.29
2018-12-25T06:02:58.919Z,83.29
2018-12-25T06:03:58.903Z,84.22
2018-12-25T06:04:58.882Z,83.91
2018-12-25T06:05:58.870Z,83.64
2018-12-25T06:06:58.859Z,83.81
2018-12-25T06:07:58.867Z,84.01
2018-12-25T06:08:58.838Z,84.58
2018-12-25T06:09:58.841Z,84.58
2018-12-25T06:10:58.828Z,84.47
2018-12-25T06:11:58.807Z,84.05
2018-12-25T06:12:58.816Z,83.74
2018-12-25T06:13:58.786Z,83.60
2018-12-25T06:14:58.776Z,83.39
2018-12-25T06:15:58.794Z,83.29
2018-12-25T06:16:58.759Z,82.98
2018-12-25T06:17:58.765Z,83.29
2018-12-25T06:18:58.734Z,83.39
2018-12-25T06:19:58.723Z,83.39
2018-12-25T06:20:58.712Z,83.08
2018-12-25T06:21:58.708Z,83.08
2018-12-25T06:22:58.709Z,83.29
2018-12-25T06:23:58.681Z,83.29
2018-12-25T06:24:58.670Z,82.87
2018-12-25T06:25:58.661Z,83.04
2018-12-25T06:26:58.651Z,82.94
2018-12-25T06:27:58.662Z,83.36
2018-12-25T06:28:58.633Z,83.46
2018-12-25T06:29:58.617Z,83.29
2018-12-25T06:30:58.607Z,83.50
2018-12-25T06:31:58.597Z,83.39
2018-12-25T06:32:58.604Z,83.18
2018-12-25T06:33:58.638Z,83.29
2018-12-25T06:34:58.567Z,83.18
2018-12-25T06:35:58.557Z,82.94
2018-12-25T06:36:58.547Z,82.98
2018-12-25T06:37:58.553Z,83.08
2018-12-25T06:38:58.523Z,83.15
2018-12-25T06:39:58.512Z,82.63
2018-12-25T06:40:58.526Z,83.25
2018-12-25T06:41:58.491Z,82.84
2018-12-25T06:42:58.514Z,83.67
2018-12-25T06:43:58.472Z,82.84
2018-12-25T06:44:58.460Z,83.32
2018-12-25T06:45:58.449Z,83.25
2018-12-25T06:46:58.449Z,83.04
2018-12-25T06:47:58.427Z,83.15
2018-12-25T06:48:58.436Z,83.04
2018-12-25T06:49:58.414Z,82.84
2018-12-25T06:51:03.781Z,82.87
2018-12-25T06:51:59.479Z,84.29
2018-12-25T06:52:58.383Z,83.81
2018-12-25T06:53:58.385Z,84.33
2018-12-25T06:54:58.354Z,84.64
2018-12-25T06:55:58.344Z,84.29
2018-12-25T06:56:58.339Z,84.60
2018-12-25T06:57:58.326Z,83.56
2018-12-25T06:58:58.346Z,83.98
2018-12-25T06:59:58.301Z,83.87
2018-12-25T07:00:58.290Z,84.33
2018-12-25T07:01:58.284Z,83.81
2018-12-25T07:02:58.269Z,84.64
2018-12-25T07:03:58.277Z,84.33
2018-12-25T07:04:58.254Z,84.43
2018-12-25T07:05:58.237Z,84.33
2018-12-25T07:06:58.227Z,84.43
2018-12-25T07:07:58.217Z,84.89
2018-12-25T07:08:58.224Z,84.84
2018-12-25T07:09:58.195Z,84.95
2018-12-25T07:10:58.194Z,84.89
2018-12-25T07:11:58.174Z,84.68
2018-12-25T07:12:58.166Z,84.89
2018-12-25T07:13:58.177Z,84.84
2018-12-25T07:14:58.144Z,84.74
2018-12-25T07:15:58.136Z,84.64
2018-12-25T07:16:58.143Z,84.84
2018-12-25T07:17:58.119Z,84.33
2018-12-25T07:18:58.130Z,85.05
2018-12-25T07:19:58.095Z,84.33
2018-12-25T07:20:58.091Z,84.53
2018-12-25T07:21:58.072Z,84.84
2018-12-25T07:22:58.091Z,85.05
2018-12-25T07:23:58.072Z,83.95
2018-12-25T07:24:58.041Z,85.30
2018-12-25T07:25:58.026Z,84.78
2018-12-25T07:26:58.027Z,84.68
2018-12-25T07:27:58.006Z,85.30
2018-12-25T07:28:58.044Z,85.51
2018-12-25T07:29:57.993Z,85.82
2018-12-25T07:30:58.041Z,85.51
2018-12-25T07:31:57.983Z,85.51
2018-12-25T07:32:57.953Z,84.89
2018-12-25T07:33:57.942Z,84.68
2018-12-25T07:34:58.012Z,85.20
2018-12-25T07:35:57.927Z,85.20
2018-12-25T07:36:57.911Z,84.64
2018-12-25T07:37:57.923Z,84.64
2018-12-25T07:38:57.890Z,84.01
2018-12-25T07:39:57.902Z,82.98
2018-12-25T07:40:57.868Z,82.04
2018-12-25T07:41:57.861Z,81.84
2018-12-25T07:42:57.845Z,82.25
2018-12-25T07:43:57.838Z,81.80
2018-12-25T07:44:57.850Z,81.49
2018-12-25T07:45:57.832Z,80.24
2018-12-25T07:46:57.804Z,80.35
2018-12-25T07:47:57.797Z,80.45
2018-12-25T07:48:57.784Z,80.66
2018-12-25T07:49:57.793Z,79.06
2018-12-25T07:50:57.764Z,79.06
2018-12-25T07:51:57.755Z,78.55
2018-12-25T07:52:57.742Z,77.82
2018-12-25T07:53:57.731Z,77.92
2018-12-25T07:54:57.739Z,77.82
2018-12-25T07:55:57.709Z,78.03
2018-12-25T07:56:57.698Z,78.86
2018-12-25T07:57:57.695Z,78.75
2018-12-25T07:58:57.679Z,79.03
2018-12-25T07:59:57.690Z,78.30
2018-12-25T08:00:57.656Z,78.30
2018-12-25T08:01:57.650Z,78.09
2018-12-25T08:02:57.636Z,78.09
2018-12-25T08:03:57.632Z,77.68
2018-12-25T08:04:57.632Z,77.78
2018-12-25T08:05:57.607Z,77.89
2018-12-25T08:06:57.593Z,77.58
2018-12-25T08:07:57.584Z,78.09
2018-12-25T08:08:57.573Z,78.92
2018-12-25T08:09:57.613Z,78.92
2018-12-25T08:10:57.556Z,78.82
2018-12-25T08:11:57.543Z,78.72
2018-12-25T08:12:57.531Z,78.92
2018-12-25T08:13:57.521Z,79.55
2018-12-25T08:14:57.511Z,79.69
2018-12-25T08:15:57.532Z,79.34
2018-12-25T08:16:57.490Z,79.96
2018-12-25T08:17:57.481Z,79.90
2018-12-25T08:18:57.483Z,80.06
2018-12-25T08:19:57.458Z,79.79
2018-12-25T08:20:57.463Z,79.06
2018-12-25T08:21:57.448Z,80.06
2018-12-25T08:23:02.613Z,79.79
2018-12-25T08:23:58.414Z,80.27
2018-12-25T08:24:57.403Z,79.75
2018-12-25T08:25:57.411Z,79.90
2018-12-25T08:26:57.385Z,79.75
2018-12-25T08:27:57.376Z,79.96
2018-12-25T08:28:57.370Z,78.92
2018-12-25T08:29:57.352Z,79.13
2018-12-25T08:30:57.359Z,79.13
2018-12-25T08:31:57.332Z,79.44
2018-12-25T08:32:57.321Z,79.75
2018-12-25T08:33:57.322Z,80.13
2018-12-25T08:34:57.322Z,80.68
2018-12-25T08:35:57.307Z,80.33
2018-12-25T08:36:57.287Z,79.92
2018-12-25T08:37:57.266Z,80.47
2018-12-25T08:38:57.258Z,80.68
2018-12-25T08:39:57.247Z,80.16
2018-12-25T08:40:57.268Z,80.37
2018-12-25T08:41:57.229Z,79.75
2018-12-25T08:42:57.213Z,79.55
2018-12-25T08:43:57.284Z,79.65
2018-12-25T08:44:57.194Z,80.58
2018-12-25T08:45:57.201Z,80.47
2018-12-25T08:47:02.686Z,80.27
2018-12-25T08:47:58.159Z,80.68
2018-12-25T08:48:57.150Z,80.79
2018-12-25T08:49:57.141Z,80.89
2018-12-25T08:50:57.158Z,80.16
2018-12-25T08:51:57.122Z,80.79
2018-12-25T08:52:57.122Z,80.44
2018-12-25T08:53:57.100Z,80.02
2018-12-25T08:54:57.101Z,79.75
2018-12-25T08:55:57.082Z,80.02
2018-12-25T08:56:57.086Z,79.61
2018-12-25T08:57:57.065Z,78.78
2018-12-25T08:58:57.047Z,79.30
2018-12-25T08:59:57.036Z,79.61
2018-12-25T09:00:57.037Z,80.54
2018-12-25T09:01:57.043Z,80.96
2018-12-25T09:02:57.003Z,80.13
2018-12-25T09:03:56.999Z,79.30
2018-12-25T09:04:56.987Z,79.41
2018-12-25T09:05:56.974Z,78.99
2018-12-25T09:06:56.979Z,78.96
2018-12-25T09:07:56.952Z,79.78
2018-12-25T09:08:56.942Z,79.37
2018-12-25T09:09:56.945Z,79.16
2018-12-25T09:10:56.923Z,78.85
2018-12-25T09:11:56.927Z,78.50
2018-12-25T09:12:56.900Z,78.61
2018-12-25T09:13:56.889Z,79.02
2018-12-25T09:14:56.878Z,78.50
2018-12-25T09:15:56.885Z,78.19
2018-12-25T09:16:56.877Z,78.88
2018-12-25T09:17:56.848Z,77.95
2018-12-25T09:18:56.840Z,78.47
2018-12-25T09:19:56.825Z,78.99
2018-12-25T09:20:56.818Z,78.47
2018-12-25T09:21:56.861Z,78.78
2018-12-25T09:22:56.796Z,78.99
2018-12-25T09:23:56.789Z,78.16
2018-12-25T09:24:56.773Z,77.64
2018-12-25T09:25:56.762Z,77.60
2018-12-25T09:26:56.753Z,78.02
2018-12-25T09:27:56.764Z,78.02
2018-12-25T09:28:56.736Z,79.05
2018-12-25T09:29:56.735Z,78.95
2018-12-25T09:30:56.714Z,78.85
2018-12-25T09:31:56.702Z,78.02
2018-12-25T09:32:56.733Z,77.60
2018-12-25T09:33:56.688Z,77.50
2018-12-25T09:34:56.673Z,77.91
2018-12-25T09:35:56.671Z,76.98
2018-12-25T09:36:56.656Z,76.98
2018-12-25T09:37:56.661Z,77.09
2018-12-25T09:38:56.630Z,76.98
2018-12-25T09:39:56.627Z,76.57
2018-12-25T09:40:56.611Z,76.05
2018-12-25T09:41:56.614Z,76.67
2018-12-25T09:42:56.611Z,76.67
2018-12-25T09:43:56.586Z,76.88
2018-12-25T09:44:56.570Z,77.19
2018-12-25T09:45:56.562Z,76.46
2018-12-25T09:46:56.550Z,76.67
2018-12-25T09:47:56.559Z,76.01
2018-12-25T09:48:56.536Z,76.12
2018-12-25T09:49:56.520Z,76.43
2018-12-25T09:50:56.519Z,75.40
2018-12-25T09:51:56.502Z,73.33
2018-12-25T09:52:56.508Z,73.12
2018-12-25T09:53:56.485Z,73.02
2018-12-25T09:54:56.480Z,72.78
2018-12-25T09:55:56.460Z,72.26
2018-12-25T09:56:56.449Z,72.05
2018-12-25T09:57:56.457Z,72.05
2018-12-25T09:58:56.428Z,71.50
2018-12-25T09:59:56.493Z,71.61
2018-12-25T10:00:56.412Z,71.37
2018-12-25T10:01:56.405Z,70.43
2018-12-25T10:02:56.441Z,69.92
2018-12-25T10:03:56.390Z,70.61
2018-12-25T10:04:56.696Z,69.58
2018-12-25T10:05:56.360Z,70.20
2018-12-25T10:06:56.346Z,70.27
2018-12-25T10:07:56.339Z,69.13
2018-12-25T10:08:56.346Z,68.93
2018-12-25T10:09:56.321Z,69.13
2018-12-25T10:10:56.304Z,67.66
2018-12-25T10:11:56.299Z,67.35
2018-12-25T10:12:56.284Z,67.86
2018-12-25T10:13:56.296Z,67.45
2018-12-25T10:14:56.264Z,66.31
2018-12-25T10:15:56.261Z,66.28
2018-12-25T10:16:56.244Z,65.50
2018-12-25T10:17:56.236Z,65.16
2018-12-25T10:18:56.242Z,63.93
2018-12-25T10:19:56.213Z,63.00
2018-12-25T10:20:56.205Z,63.72
2018-12-25T10:22:02.963Z,64.34
2018-12-25T10:22:57.183Z,64.03
2018-12-25T10:23:56.198Z,64.03
2018-12-25T10:24:56.162Z,62.56
2018-12-25T10:25:56.177Z,63.28
2018-12-25T10:26:56.137Z,63.05
2018-12-25T10:27:56.131Z,62.88
2018-12-25T10:28:56.231Z,61.93
2018-12-25T10:29:56.104Z,61.72
2018-12-25T10:30:56.103Z,60.60
2018-12-25T10:31:56.086Z,61.70
2018-12-25T10:32:56.073Z,60.77
2018-12-25T10:33:56.096Z,60.23
2018-12-25T10:34:56.051Z,58.90
2018-12-25T10:35:56.041Z,59.48
2018-12-25T10:36:56.029Z,58.56
2018-12-25T10:37:56.019Z,59.28
2018-12-25T10:38:56.029Z,58.49
2018-12-25T10:39:55.999Z,58.69
2018-12-25T10:40:55.986Z,60.13
2018-12-25T10:41:55.975Z,60.98
2018-12-25T10:42:55.965Z,60.36
2018-12-25T10:43:55.973Z,59.54
2018-12-25T10:44:55.963Z,60.23
2018-12-25T10:45:55.941Z,59.00
2018-12-25T10:46:55.945Z,60.36
2018-12-25T10:47:56.028Z,57.21
2018-12-25T10:48:55.927Z,58.44
2018-12-25T10:49:55.888Z,58.75
2018-12-25T10:50:55.880Z,58.62
2018-12-25T10:51:55.870Z,59.23
2018-12-25T10:52:55.869Z,58.72
2018-12-25T10:53:55.846Z,59.13
2018-12-25T10:54:55.855Z,58.41
2018-12-25T10:55:55.822Z,58.23
2018-12-25T10:56:55.815Z,58.36
2018-12-25T10:57:55.807Z,58.50
2018-12-25T10:58:55.795Z,59.11
2018-12-25T10:59:55.802Z,59.63
2018-12-25T11:00:55.768Z,59.01
2018-12-25T11:01:55.761Z,59.52
2018-12-25T11:02:55.751Z,59.24
2018-12-25T11:03:55.757Z,59.73
2018-12-25T11:04:55.765Z,59.63
2018-12-25T11:05:55.715Z,60.14
2018-12-25T11:06:55.707Z,60.55
2018-12-25T11:07:55.693Z,59.63
2018-12-25T11:08:55.685Z,60.14
2018-12-25T11:09:55.710Z,60.03
2018-12-25T11:10:55.669Z,59.96
2018-12-25T11:11:55.652Z,60.50
2018-12-25T11:12:55.641Z,61.09
2018-12-25T11:13:55.632Z,61.53
2018-12-25T11:14:56.249Z,60.78
2018-12-25T11:15:55.628Z,61.30
2018-12-25T11:16:55.613Z,59.45
2018-12-25T11:17:55.587Z,59.65
2018-12-25T11:18:55.573Z,60.47
2018-12-25T11:19:55.569Z,60.47
2018-12-25T11:20:55.573Z,60.06
2018-12-25T11:21:55.543Z,59.96
2018-12-25T11:22:55.539Z,60.68
2018-12-25T11:23:55.521Z,60.37
2018-12-25T11:24:55.510Z,60.06
2018-12-25T11:25:55.523Z,60.78
2018-12-25T11:26:55.493Z,61.09
2018-12-25T11:27:55.477Z,61.51
2018-12-25T11:28:55.480Z,61.61
2018-12-25T11:29:55.460Z,61.91
2018-12-25T11:30:55.461Z,61.81
2018-12-25T11:31:55.438Z,62.74
2018-12-25T11:32:55.456Z,62.56
2018-12-25T11:33:55.413Z,62.02
2018-12-25T11:34:55.409Z,62.02
2018-12-25T11:35:55.393Z,61.30
2018-12-25T11:36:55.380Z,60.99
2018-12-25T11:37:55.394Z,60.58
2018-12-25T11:38:55.377Z,60.47
2018-12-25T11:39:55.384Z,60.89
2018-12-25T11:40:55.366Z,60.78
2018-12-25T11:41:55.327Z,60.37
2018-12-25T11:42:55.317Z,60.09
2018-12-25T11:43:55.321Z,62.05
2018-12-25T11:44:55.304Z,62.66
2018-12-25T11:45:55.314Z,62.97
2018-12-25T11:46:55.283Z,62.79
2018-12-25T11:47:55.264Z,63.00
2018-12-25T11:48:55.251Z,61.98
2018-12-25T11:49:55.243Z,62.05
2018-12-25T11:50:55.262Z,62.05
2018-12-25T11:51:55.221Z,61.63
2018-12-25T11:52:55.218Z,62.38
2018-12-25T11:53:55.199Z,62.25
2018-12-25T11:54:55.191Z,60.94
2018-12-25T11:55:55.195Z,61.56
2018-12-25T11:56:55.186Z,62.28
2018-12-25T11:57:55.159Z,60.53
2018-12-25T11:58:55.160Z,61.05
2018-12-25T11:59:55.134Z,61.25
2018-12-25T12:00:55.122Z,60.84
2018-12-25T12:01:55.129Z,61.66
2018-12-25T12:02:55.108Z,62.41
2018-12-25T12:03:55.093Z,62.41
2018-12-25T12:04:55.096Z,63.34
2018-12-25T12:05:55.112Z,62.03
2018-12-25T12:06:55.082Z,62.96
2018-12-25T12:07:55.050Z,62.85
2018-12-25T12:08:55.046Z,62.72
2018-12-25T12:09:55.027Z,62.82
2018-12-25T12:10:55.027Z,62.82
2018-12-25T12:11:55.029Z,62.70
2018-12-25T12:12:54.996Z,62.07
2018-12-25T12:13:54.996Z,62.79
2018-12-25T12:14:54.979Z,62.38
2018-12-25T12:15:54.964Z,62.70
2018-12-25T12:16:54.969Z,62.28
2018-12-25T12:17:54.955Z,62.15
2018-12-25T12:18:54.943Z,62.25
2018-12-25T12:19:54.920Z,61.53
2018-12-25T12:20:54.917Z,61.98
2018-12-25T12:21:54.931Z,62.49
2018-12-25T12:22:54.889Z,61.66
2018-12-25T12:23:54.883Z,62.28
2018-12-25T12:24:54.867Z,61.66
2018-12-25T12:25:54.857Z,61.33
2018-12-25T12:26:54.892Z,60.94
2018-12-25T12:27:54.839Z,61.98
2018-12-25T12:28:54.841Z,61.98
2018-12-25T12:29:54.840Z,62.28
2018-12-25T12:30:54.805Z,62.28
2018-12-25T12:31:54.793Z,62.90
2018-12-25T12:32:54.804Z,62.70
2018-12-25T12:33:54.769Z,62.38
2018-12-25T12:34:54.771Z,62.87
2018-12-25T12:35:54.759Z,62.77
2018-12-25T12:36:54.740Z,62.66
2018-12-25T12:37:54.750Z,62.66
2018-12-25T12:38:54.719Z,61.94
2018-12-25T12:39:54.707Z,62.25
2018-12-25T12:40:54.696Z,62.35
2018-12-25T12:41:54.692Z,62.79
2018-12-25T12:42:54.697Z,62.66
2018-12-25T12:43:54.674Z,62.35
2018-12-25T12:44:54.656Z,63.39
2018-12-25T12:45:54.641Z,62.84
2018-12-25T12:46:54.632Z,62.46
2018-12-25T12:47:54.656Z,61.63
2018-12-25T12:48:54.614Z,61.63
2018-12-25T12:49:54.598Z,61.19
2018-12-25T12:50:54.601Z,61.53
2018-12-25T12:51:54.577Z,61.40